Genco Auvergne — V7ES3 — position and weather

sailwx.info

Track history (hours):
 
Tides and Currents Weather Stations Pressure Air Temp Water Temp Dewpoint Dewpoint Depression Visibility Wind Speed Wind Dir Waves Ship Positions

Genco Auvergne

Last reported at 2016-Feb-07 13:23 UTC. Time now 2016-Feb-12 03:38 UTC.
Position N 49°27' W 000°46'.

Length 190 m; draft 11.1 m.

Type: Cargo ship. MMSI: 538002570.

Date/timePositionNaut miles runAvg speedWind from/ knotsBaromVisibWave heightAir tempDewpointWater temp
2016-Feb-07 13:23N 49°27' W 000°46'0 0.0
2016-Feb-07 12:29N 49°27' W 000°46'0 0.1
2016-Feb-07 11:23N 49°27' W 000°46'0 0.0
2016-Feb-07 03:05N 49°27' W 000°46'0 0.1
2016-Feb-07 02:29N 49°27' W 000°46'0 0.0
2016-Feb-07 01:29N 49°27' W 000°46'0 0.0
2016-Feb-07 00:29N 49°27' W 000°46'0 0.1
2016-Feb-06 22:29N 49°27' W 000°46'0 0.0
2016-Feb-06 20:29N 49°27' W 000°46'0 0.0
2016-Feb-06 16:11N 49°27' W 000°46'0 0.0
2016-Feb-06 14:05N 49°27' W 000°46'0 0.0
2016-Feb-06 13:29N 49°27' W 000°46'0 0.0
2016-Feb-06 12:23N 49°27' W 000°46'0 0.0
2016-Feb-06 11:29N 49°27' W 000°46'0 0.1
2016-Feb-06 10:29N 49°27' W 000°46'0 0.1
2016-Feb-06 06:25N 49°27' W 000°46'3 3.1
2016-Feb-06 05:24N 49°30' W 000°47'6711.4
2016-Feb-05 23:28N 50°32' W 000°05'1111.2
2016-Feb-05 22:29N 50°34' E 000°12'4110.4
2016-Feb-05 18:33N 50°52' E 001°10'1211.5
2016-Feb-05 17:33N 50°59' E 001°24'1312.5
2016-Feb-05 16:33N 51°08' E 001°38'1211.9
2016-Feb-05 15:33N 51°18' E 001°50'1111.1
2016-Feb-05 14:33N 51°28' E 001°56'1010.2
2016-Feb-05 13:33N 51°36' E 002°07'1010.3
2016-Feb-05 12:33N 51°43' E 002°19'7610.9
2016-Feb-05 05:33N 52°31' E 003°56'1010.0
2016-Feb-05 04:33N 52°31' E 004°12'5 5.1
2016-Feb-05 03:31N 52°31' E 004°21'0 0.0
2016-Feb-05 02:31N 52°31' E 004°21'0 0.0
2016-Feb-05 01:31N 52°31' E 004°21'0 0.0
2016-Feb-05 00:31N 52°31' E 004°21'0 0.0
2016-Feb-04 23:31N 52°31' E 004°21'0 0.0
2016-Feb-04 22:31N 52°31' E 004°21'0 0.1
2016-Feb-04 21:31N 52°31' E 004°21'0 0.1
2016-Feb-04 20:31N 52°31' E 004°20'0 0.1
2016-Feb-04 19:33N 52°31' E 004°21'3 3.5
2016-Feb-04 18:33N 52°30' E 004°26'4 3.6
2016-Feb-04 17:34N 52°28' E 004°31'3 3.2
2016-Feb-04 16:33N 52°28' E 004°37'3 2.8
2016-Feb-04 15:33N 52°27' E 004°41'6 5.7
2016-Feb-04 14:34N 52°24' E 004°49'0 0.4
2016-Feb-04 13:32N 52°24' E 004°49'0 0.0
2016-Feb-04 12:32N 52°24' E 004°49'0 0.0
2016-Feb-04 11:32N 52°24' E 004°49'0 0.0
2016-Feb-04 10:32N 52°24' E 004°49'0 0.0
2016-Feb-04 09:32N 52°24' E 004°49'0 0.0
2016-Feb-04 08:32N 52°24' E 004°49'0 0.0
2016-Feb-04 07:32N 52°24' E 004°49'0 0.0
2016-Feb-04 06:32N 52°24' E 004°49'0 0.0
2016-Feb-04 05:32N 52°24' E 004°49'0 0.0
2016-Feb-04 04:32N 52°24' E 004°49'0 0.0
2016-Feb-04 03:32N 52°24' E 004°49'0 0.0
2016-Feb-04 02:32N 52°24' E 004°49'0 0.0
2016-Feb-04 01:32N 52°24' E 004°49'0 0.0
2016-Feb-04 00:32N 52°24' E 004°49'0 0.0
2016-Feb-03 23:32N 52°24' E 004°49'0 0.0
2016-Feb-03 22:32N 52°24' E 004°49'0 0.0
2016-Feb-03 21:32N 52°24' E 004°49'0 0.0
2016-Feb-03 20:32N 52°24' E 004°49'0 0.0
2016-Feb-03 19:32N 52°24' E 004°49'0 0.0
2016-Feb-03 18:32N 52°24' E 004°49'0 0.0
2016-Feb-03 17:32N 52°24' E 004°49'0 0.0
2016-Feb-03 16:32N 52°24' E 004°49'0 0.0
2016-Feb-03 15:32N 52°24' E 004°49'0 0.0
2016-Feb-03 14:32N 52°24' E 004°49'0 0.0
2016-Feb-03 13:32N 52°24' E 004°49'0 0.0
2016-Feb-03 12:32N 52°24' E 004°49'0 0.0
2016-Feb-03 11:32N 52°24' E 004°49'0 0.0
2016-Feb-03 10:32N 52°24' E 004°49'0 0.0
2016-Feb-03 09:32N 52°24' E 004°49'0 0.0
2016-Feb-03 08:32N 52°24' E 004°49'0 0.0
2016-Feb-03 07:32N 52°24' E 004°49'0 0.0
2016-Feb-03 06:32N 52°24' E 004°49'0 0.0
2016-Feb-03 05:32N 52°24' E 004°49'0 0.0
2016-Feb-03 04:32N 52°24' E 004°49'0 0.0
2016-Feb-03 03:32N 52°24' E 004°49'0 0.0
2016-Feb-03 02:32N 52°24' E 004°49'0 0.0
2016-Feb-03 01:32N 52°24' E 004°49'0 0.0
2016-Feb-03 00:32N 52°24' E 004°49'0 0.0
2016-Feb-02 23:32N 52°24' E 004°49'0 0.0
2016-Feb-02 22:32N 52°24' E 004°49'0 0.0
2016-Feb-02 21:32N 52°24' E 004°49'0 0.0
2016-Feb-02 20:32N 52°24' E 004°49'0 0.0
2016-Feb-02 19:32N 52°24' E 004°49'0 0.0
2016-Feb-02 18:29N 52°24' E 004°49'0 0.0
2016-Feb-02 17:32N 52°24' E 004°49'0 0.0
2016-Feb-02 16:29N 52°24' E 004°49'0 0.0
2016-Feb-02 15:32N 52°24' E 004°49'0 0.0
2016-Feb-02 14:32N 52°24' E 004°49'0 0.0
2016-Feb-02 13:32N 52°24' E 004°49'0 0.0
2016-Feb-02 12:29N 52°24' E 004°49'0 0.0
2016-Feb-02 11:32N 52°24' E 004°49'0 0.0
2016-Feb-02 10:32N 52°24' E 004°49'0 0.0
2016-Feb-02 09:32N 52°24' E 004°49'0 0.0
2016-Feb-02 08:32N 52°24' E 004°49'0 0.0
2016-Feb-02 07:32N 52°24' E 004°49'0 0.0
2016-Feb-02 06:29N 52°24' E 004°49'0 0.0
2016-Feb-02 05:29N 52°24' E 004°49'0 0.0
2016-Feb-02 04:32N 52°24' E 004°49'0 0.0
2016-Feb-02 03:32N 52°24' E 004°49'0 0.0
2016-Feb-02 02:32N 52°24' E 004°49'0 0.0
2016-Feb-02 01:32N 52°24' E 004°49'0 0.0
2016-Feb-02 00:32N 52°24' E 004°49'0 0.0
2016-Feb-01 23:32N 52°24' E 004°49'0 0.0
2016-Feb-01 22:32N 52°24' E 004°49'0 0.0
2016-Feb-01 21:32N 52°24' E 004°49'0 0.0
2016-Feb-01 20:29N 52°24' E 004°49'0 0.0
2016-Feb-01 19:32N 52°24' E 004°49'0 0.0
2016-Feb-01 18:32N 52°24' E 004°49'0 0.0
2016-Feb-01 17:32N 52°24' E 004°49'0 0.0
2016-Feb-01 16:32N 52°24' E 004°49'0 0.0
2016-Feb-01 15:32N 52°24' E 004°49'0 0.0
2016-Feb-01 14:32N 52°24' E 004°49'0 0.0
2016-Feb-01 13:32N 52°24' E 004°49'0 0.0
2016-Feb-01 12:32N 52°24' E 004°49'0 0.0
2016-Feb-01 11:32N 52°24' E 004°49'0 0.0
2016-Feb-01 10:32N 52°24' E 004°49'0 0.0
2016-Feb-01 09:32N 52°24' E 004°49'0 0.0
2016-Feb-01 08:32N 52°24' E 004°49'0 0.0
2016-Feb-01 07:32N 52°24' E 004°49'0 0.0
2016-Feb-01 06:32N 52°24' E 004°49'0 0.0
2016-Feb-01 05:32N 52°24' E 004°49'0 0.0
2016-Feb-01 04:32N 52°24' E 004°49'0 0.0
2016-Feb-01 03:32N 52°24' E 004°49'0 0.0
2016-Feb-01 02:32N 52°24' E 004°49'0 0.0
2016-Feb-01 01:32N 52°24' E 004°49'0 0.0
2016-Feb-01 00:32N 52°24' E 004°49'0 0.0
2016-Jan-31 23:32N 52°24' E 004°49'0 0.0
2016-Jan-31 22:32N 52°24' E 004°49'0 0.0
2016-Jan-31 21:32N 52°24' E 004°49'0 0.0
2016-Jan-31 20:32N 52°24' E 004°49'0 0.0
2016-Jan-31 19:32N 52°24' E 004°49'0 0.0
2016-Jan-31 18:32N 52°24' E 004°49'0 0.0
2016-Jan-31 17:32N 52°24' E 004°49'0 0.0
2016-Jan-31 16:32N 52°24' E 004°49'0 0.0
2016-Jan-31 15:32N 52°24' E 004°49'0 0.0
2016-Jan-31 14:32N 52°24' E 004°49'0 0.0
2016-Jan-31 13:32N 52°24' E 004°49'0 0.0
2016-Jan-31 12:32N 52°24' E 004°49'0 0.0
2016-Jan-31 11:32N 52°24' E 004°49'0 0.0
2016-Jan-31 10:32N 52°24' E 004°49'0 0.0
2016-Jan-31 09:32N 52°24' E 004°49'0 0.0
2016-Jan-31 08:29N 52°24' E 004°49'0 0.0
2016-Jan-31 07:32N 52°24' E 004°49'0 0.0
2016-Jan-31 06:32N 52°24' E 004°49'0 0.0
2016-Jan-31 05:32N 52°24' E 004°49'0 0.0
2016-Jan-31 04:32N 52°24' E 004°49'0 0.0
2016-Jan-31 03:32N 52°24' E 004°49'0 0.0
2016-Jan-31 02:32N 52°24' E 004°49'0 0.0
2016-Jan-31 01:32N 52°24' E 004°49'0 0.0
2016-Jan-31 00:32N 52°24' E 004°49'0 0.0
2016-Jan-30 23:32N 52°24' E 004°49'0 0.0
2016-Jan-30 22:32N 52°24' E 004°49'0 0.0
2016-Jan-30 21:32N 52°24' E 004°49'0 0.0
2016-Jan-30 20:32N 52°24' E 004°49'0 0.0
2016-Jan-30 19:32N 52°24' E 004°49'0 0.0
2016-Jan-30 18:32N 52°24' E 004°49'0 0.0
2016-Jan-30 17:32N 52°24' E 004°49'0 0.0
2016-Jan-30 16:32N 52°24' E 004°49'0 0.0
2016-Jan-30 15:32N 52°24' E 004°49'0 0.0
2016-Jan-30 14:32N 52°24' E 004°49'0 0.0
2016-Jan-30 13:29N 52°24' E 004°49'0 0.0
2016-Jan-30 12:32N 52°24' E 004°49'0 0.0
2016-Jan-30 11:32N 52°24' E 004°49'0 0.0
2016-Jan-30 10:32N 52°24' E 004°49'0 0.0
2016-Jan-30 09:32N 52°24' E 004°49'0 0.0
2016-Jan-30 08:32N 52°24' E 004°49'0 0.0
2016-Jan-30 07:32N 52°24' E 004°49'0 0.0
2016-Jan-30 06:32N 52°24' E 004°49'0 0.0
2016-Jan-30 05:32N 52°24' E 004°49'0 0.0
2016-Jan-30 04:32N 52°24' E 004°49'0 0.0
2016-Jan-30 03:31N 52°24' E 004°49'0 0.0
2016-Jan-30 02:32N 52°24' E 004°49'0 0.0
2016-Jan-30 01:32N 52°24' E 004°49'0 0.0
2016-Jan-30 00:32N 52°24' E 004°49'0 0.0
2016-Jan-29 23:32N 52°24' E 004°49'0 0.0
2016-Jan-29 22:32N 52°24' E 004°49'0 0.0
2016-Jan-29 21:31N 52°24' E 004°49'0 0.0
2016-Jan-29 20:31N 52°24' E 004°49'0 0.0
2016-Jan-29 19:32N 52°24' E 004°49'0 0.0
2016-Jan-29 18:31N 52°24' E 004°49'0 0.0
2016-Jan-29 17:31N 52°24' E 004°49'0 0.0
2016-Jan-29 16:31N 52°24' E 004°49'0 0.0
2016-Jan-29 15:31N 52°24' E 004°49'0 0.0
2016-Jan-29 14:31N 52°24' E 004°49'0 0.0
2016-Jan-29 13:31N 52°24' E 004°49'0 0.0
2016-Jan-29 12:31N 52°24' E 004°49'0 0.0
2016-Jan-29 11:32N 52°24' E 004°49'0 0.0
2016-Jan-29 10:31N 52°24' E 004°49'0 0.0
2016-Jan-29 09:31N 52°24' E 004°49'0 0.0
2016-Jan-29 08:31N 52°24' E 004°49'0 0.0
2016-Jan-29 07:31N 52°24' E 004°49'0 0.0
2016-Jan-29 06:31N 52°24' E 004°49'0 0.0
2016-Jan-29 05:31N 52°24' E 004°49'0 0.0
2016-Jan-29 04:31N 52°24' E 004°49'0 0.0
2016-Jan-29 03:31N 52°24' E 004°49'0 0.0
2016-Jan-29 02:31N 52°24' E 004°49'0 0.0
2016-Jan-29 01:31N 52°24' E 004°49'0 0.0
2016-Jan-29 00:31N 52°24' E 004°49'0 0.0
2016-Jan-28 23:31N 52°24' E 004°49'0 0.0
2016-Jan-28 22:31N 52°24' E 004°49'0 0.0
2016-Jan-28 21:31N 52°24' E 004°49'0 0.0
2016-Jan-28 20:31N 52°24' E 004°49'0 0.0
2016-Jan-28 19:31N 52°24' E 004°49'0 0.0
2016-Jan-28 18:31N 52°24' E 004°49'0 0.0
2016-Jan-28 17:31N 52°24' E 004°49'0 0.0
2016-Jan-28 16:31N 52°24' E 004°49'0 0.0
2016-Jan-28 15:31N 52°24' E 004°49'0 0.0
2016-Jan-28 14:31N 52°24' E 004°49'0 0.0
2016-Jan-28 13:31N 52°24' E 004°49'  
Track history (hours):
 
Tides and Currents Weather Stations Pressure Air Temp Water Temp Dewpoint Dewpoint Depression Visibility Wind Speed Wind Dir Waves Ship Positions

Genco Auvergne

Last reported at 2016-Feb-07 13:23 UTC. Time now 2016-Feb-12 03:38 UTC.
Position N 49°27' W 000°46'.

Length 190 m; draft 11.1 m.

Type: Cargo ship. MMSI: 538002570.

Date/timePositionNaut miles runAvg speedWind from/ knotsBaromVisibWave heightAir tempDewpointWater temp
2016-Feb-07 13:23N 49°27' W 000°46'0 0.0
2016-Feb-07 12:29N 49°27' W 000°46'0 0.1
2016-Feb-07 11:23N 49°27' W 000°46'0 0.0
2016-Feb-07 03:05N 49°27' W 000°46'0 0.1
2016-Feb-07 02:29N 49°27' W 000°46'0 0.0
2016-Feb-07 01:29N 49°27' W 000°46'0 0.0
2016-Feb-07 00:29N 49°27' W 000°46'0 0.1
2016-Feb-06 22:29N 49°27' W 000°46'0 0.0
2016-Feb-06 20:29N 49°27' W 000°46'0 0.0
2016-Feb-06 16:11N 49°27' W 000°46'0 0.0
2016-Feb-06 14:05N 49°27' W 000°46'0 0.0
2016-Feb-06 13:29N 49°27' W 000°46'0 0.0
2016-Feb-06 12:23N 49°27' W 000°46'0 0.0
2016-Feb-06 11:29N 49°27' W 000°46'0 0.1
2016-Feb-06 10:29N 49°27' W 000°46'0 0.1
2016-Feb-06 06:25N 49°27' W 000°46'3 3.1
2016-Feb-06 05:24N 49°30' W 000°47'6711.4
2016-Feb-05 23:28N 50°32' W 000°05'1111.2
2016-Feb-05 22:29N 50°34' E 000°12'4110.4
2016-Feb-05 18:33N 50°52' E 001°10'1211.5
2016-Feb-05 17:33N 50°59' E 001°24'1312.5
2016-Feb-05 16:33N 51°08' E 001°38'1211.9
2016-Feb-05 15:33N 51°18' E 001°50'1111.1
2016-Feb-05 14:33N 51°28' E 001°56'1010.2
2016-Feb-05 13:33N 51°36' E 002°07'1010.3
2016-Feb-05 12:33N 51°43' E 002°19'7610.9
2016-Feb-05 05:33N 52°31' E 003°56'1010.0
2016-Feb-05 04:33N 52°31' E 004°12'5 5.1
2016-Feb-05 03:31N 52°31' E 004°21'0 0.0
2016-Feb-05 02:31N 52°31' E 004°21'0 0.0
2016-Feb-05 01:31N 52°31' E 004°21'0 0.0
2016-Feb-05 00:31N 52°31' E 004°21'0 0.0
2016-Feb-04 23:31N 52°31' E 004°21'0 0.0
2016-Feb-04 22:31N 52°31' E 004°21'0 0.1
2016-Feb-04 21:31N 52°31' E 004°21'0 0.1
2016-Feb-04 20:31N 52°31' E 004°20'0 0.1
2016-Feb-04 19:33N 52°31' E 004°21'3 3.5
2016-Feb-04 18:33N 52°30' E 004°26'4 3.6
2016-Feb-04 17:34N 52°28' E 004°31'3 3.2
2016-Feb-04 16:33N 52°28' E 004°37'3 2.8
2016-Feb-04 15:33N 52°27' E 004°41'6 5.7
2016-Feb-04 14:34N 52°24' E 004°49'0 0.4
2016-Feb-04 13:32N 52°24' E 004°49'0 0.0
2016-Feb-04 12:32N 52°24' E 004°49'0 0.0
2016-Feb-04 11:32N 52°24' E 004°49'0 0.0
2016-Feb-04 10:32N 52°24' E 004°49'0 0.0
2016-Feb-04 09:32N 52°24' E 004°49'0 0.0
2016-Feb-04 08:32N 52°24' E 004°49'0 0.0
2016-Feb-04 07:32N 52°24' E 004°49'0 0.0
2016-Feb-04 06:32N 52°24' E 004°49'0 0.0
2016-Feb-04 05:32N 52°24' E 004°49'0 0.0
2016-Feb-04 04:32N 52°24' E 004°49'0 0.0
2016-Feb-04 03:32N 52°24' E 004°49'0 0.0
2016-Feb-04 02:32N 52°24' E 004°49'0 0.0
2016-Feb-04 01:32N 52°24' E 004°49'0 0.0
2016-Feb-04 00:32N 52°24' E 004°49'0 0.0
2016-Feb-03 23:32N 52°24' E 004°49'0 0.0
2016-Feb-03 22:32N 52°24' E 004°49'0 0.0
2016-Feb-03 21:32N 52°24' E 004°49'0 0.0
2016-Feb-03 20:32N 52°24' E 004°49'0 0.0
2016-Feb-03 19:32N 52°24' E 004°49'0 0.0
2016-Feb-03 18:32N 52°24' E 004°49'0 0.0
2016-Feb-03 17:32N 52°24' E 004°49'0 0.0
2016-Feb-03 16:32N 52°24' E 004°49'0 0.0
2016-Feb-03 15:32N 52°24' E 004°49'0 0.0
2016-Feb-03 14:32N 52°24' E 004°49'0 0.0
2016-Feb-03 13:32N 52°24' E 004°49'0 0.0
2016-Feb-03 12:32N 52°24' E 004°49'0 0.0
2016-Feb-03 11:32N 52°24' E 004°49'0 0.0
2016-Feb-03 10:32N 52°24' E 004°49'0 0.0
2016-Feb-03 09:32N 52°24' E 004°49'0 0.0
2016-Feb-03 08:32N 52°24' E 004°49'0 0.0
2016-Feb-03 07:32N 52°24' E 004°49'0 0.0
2016-Feb-03 06:32N 52°24' E 004°49'0 0.0
2016-Feb-03 05:32N 52°24' E 004°49'0 0.0
2016-Feb-03 04:32N 52°24' E 004°49'0 0.0
2016-Feb-03 03:32N 52°24' E 004°49'0 0.0
2016-Feb-03 02:32N 52°24' E 004°49'0 0.0
2016-Feb-03 01:32N 52°24' E 004°49'0 0.0
2016-Feb-03 00:32N 52°24' E 004°49'0 0.0
2016-Feb-02 23:32N 52°24' E 004°49'0 0.0
2016-Feb-02 22:32N 52°24' E 004°49'0 0.0
2016-Feb-02 21:32N 52°24' E 004°49'0 0.0
2016-Feb-02 20:32N 52°24' E 004°49'0 0.0
2016-Feb-02 19:32N 52°24' E 004°49'0 0.0
2016-Feb-02 18:29N 52°24' E 004°49'0 0.0
2016-Feb-02 17:32N 52°24' E 004°49'0 0.0
2016-Feb-02 16:29N 52°24' E 004°49'0 0.0
2016-Feb-02 15:32N 52°24' E 004°49'0 0.0
2016-Feb-02 14:32N 52°24' E 004°49'0 0.0
2016-Feb-02 13:32N 52°24' E 004°49'0 0.0
2016-Feb-02 12:29N 52°24' E 004°49'0 0.0
2016-Feb-02 11:32N 52°24' E 004°49'0 0.0
2016-Feb-02 10:32N 52°24' E 004°49'0 0.0
2016-Feb-02 09:32N 52°24' E 004°49'0 0.0
2016-Feb-02 08:32N 52°24' E 004°49'0 0.0
2016-Feb-02 07:32N 52°24' E 004°49'0 0.0
2016-Feb-02 06:29N 52°24' E 004°49'0 0.0
2016-Feb-02 05:29N 52°24' E 004°49'0 0.0
2016-Feb-02 04:32N 52°24' E 004°49'0 0.0
2016-Feb-02 03:32N 52°24' E 004°49'0 0.0
2016-Feb-02 02:32N 52°24' E 004°49'0 0.0
2016-Feb-02 01:32N 52°24' E 004°49'0 0.0
2016-Feb-02 00:32N 52°24' E 004°49'0 0.0
2016-Feb-01 23:32N 52°24' E 004°49'0 0.0
2016-Feb-01 22:32N 52°24' E 004°49'0 0.0
2016-Feb-01 21:32N 52°24' E 004°49'0 0.0
2016-Feb-01 20:29N 52°24' E 004°49'0 0.0
2016-Feb-01 19:32N 52°24' E 004°49'0 0.0
2016-Feb-01 18:32N 52°24' E 004°49'0 0.0
2016-Feb-01 17:32N 52°24' E 004°49'0 0.0
2016-Feb-01 16:32N 52°24' E 004°49'0 0.0
2016-Feb-01 15:32N 52°24' E 004°49'0 0.0
2016-Feb-01 14:32N 52°24' E 004°49'0 0.0
2016-Feb-01 13:32N 52°24' E 004°49'0 0.0
2016-Feb-01 12:32N 52°24' E 004°49'0 0.0
2016-Feb-01 11:32N 52°24' E 004°49'0 0.0
2016-Feb-01 10:32N 52°24' E 004°49'0 0.0
2016-Feb-01 09:32N 52°24' E 004°49'0 0.0
2016-Feb-01 08:32N 52°24' E 004°49'0 0.0
2016-Feb-01 07:32N 52°24' E 004°49'0 0.0
2016-Feb-01 06:32N 52°24' E 004°49'0 0.0
2016-Feb-01 05:32N 52°24' E 004°49'0 0.0
2016-Feb-01 04:32N 52°24' E 004°49'0 0.0
2016-Feb-01 03:32N 52°24' E 004°49'0 0.0
2016-Feb-01 02:32N 52°24' E 004°49'0 0.0
2016-Feb-01 01:32N 52°24' E 004°49'0 0.0
2016-Feb-01 00:32N 52°24' E 004°49'0 0.0
2016-Jan-31 23:32N 52°24' E 004°49'0 0.0
2016-Jan-31 22:32N 52°24' E 004°49'0 0.0
2016-Jan-31 21:32N 52°24' E 004°49'0 0.0
2016-Jan-31 20:32N 52°24' E 004°49'0 0.0
2016-Jan-31 19:32N 52°24' E 004°49'0 0.0
2016-Jan-31 18:32N 52°24' E 004°49'0 0.0
2016-Jan-31 17:32N 52°24' E 004°49'0 0.0
2016-Jan-31 16:32N 52°24' E 004°49'0 0.0
2016-Jan-31 15:32N 52°24' E 004°49'0 0.0
2016-Jan-31 14:32N 52°24' E 004°49'0 0.0
2016-Jan-31 13:32N 52°24' E 004°49'0 0.0
2016-Jan-31 12:32N 52°24' E 004°49'0 0.0
2016-Jan-31 11:32N 52°24' E 004°49'0 0.0
2016-Jan-31 10:32N 52°24' E 004°49'0 0.0
2016-Jan-31 09:32N 52°24' E 004°49'0 0.0
2016-Jan-31 08:29N 52°24' E 004°49'0 0.0
2016-Jan-31 07:32N 52°24' E 004°49'0 0.0
2016-Jan-31 06:32N 52°24' E 004°49'0 0.0
2016-Jan-31 05:32N 52°24' E 004°49'0 0.0
2016-Jan-31 04:32N 52°24' E 004°49'0 0.0
2016-Jan-31 03:32N 52°24' E 004°49'0 0.0
2016-Jan-31 02:32N 52°24' E 004°49'0 0.0
2016-Jan-31 01:32N 52°24' E 004°49'0 0.0
2016-Jan-31 00:32N 52°24' E 004°49'0 0.0
2016-Jan-30 23:32N 52°24' E 004°49'0 0.0
2016-Jan-30 22:32N 52°24' E 004°49'0 0.0
2016-Jan-30 21:32N 52°24' E 004°49'0 0.0
2016-Jan-30 20:32N 52°24' E 004°49'0 0.0
2016-Jan-30 19:32N 52°24' E 004°49'0 0.0
2016-Jan-30 18:32N 52°24' E 004°49'0 0.0
2016-Jan-30 17:32N 52°24' E 004°49'0 0.0
2016-Jan-30 16:32N 52°24' E 004°49'0 0.0
2016-Jan-30 15:32N 52°24' E 004°49'0 0.0
2016-Jan-30 14:32N 52°24' E 004°49'0 0.0
2016-Jan-30 13:29N 52°24' E 004°49'0 0.0
2016-Jan-30 12:32N 52°24' E 004°49'0 0.0
2016-Jan-30 11:32N 52°24' E 004°49'0 0.0
2016-Jan-30 10:32N 52°24' E 004°49'0 0.0
2016-Jan-30 09:32N 52°24' E 004°49'0 0.0
2016-Jan-30 08:32N 52°24' E 004°49'0 0.0
2016-Jan-30 07:32N 52°24' E 004°49'0 0.0
2016-Jan-30 06:32N 52°24' E 004°49'0 0.0
2016-Jan-30 05:32N 52°24' E 004°49'0 0.0
2016-Jan-30 04:32N 52°24' E 004°49'0 0.0
2016-Jan-30 03:31N 52°24' E 004°49'0 0.0
2016-Jan-30 02:32N 52°24' E 004°49'0 0.0
2016-Jan-30 01:32N 52°24' E 004°49'0 0.0
2016-Jan-30 00:32N 52°24' E 004°49'0 0.0
2016-Jan-29 23:32N 52°24' E 004°49'0 0.0
2016-Jan-29 22:32N 52°24' E 004°49'0 0.0
2016-Jan-29 21:31N 52°24' E 004°49'0 0.0
2016-Jan-29 20:31N 52°24' E 004°49'0 0.0
2016-Jan-29 19:32N 52°24' E 004°49'0 0.0
2016-Jan-29 18:31N 52°24' E 004°49'0 0.0
2016-Jan-29 17:31N 52°24' E 004°49'0 0.0
2016-Jan-29 16:31N 52°24' E 004°49'0 0.0
2016-Jan-29 15:31N 52°24' E 004°49'0 0.0
2016-Jan-29 14:31N 52°24' E 004°49'0 0.0
2016-Jan-29 13:31N 52°24' E 004°49'0 0.0
2016-Jan-29 12:31N 52°24' E 004°49'0 0.0
2016-Jan-29 11:32N 52°24' E 004°49'0 0.0
2016-Jan-29 10:31N 52°24' E 004°49'0 0.0
2016-Jan-29 09:31N 52°24' E 004°49'0 0.0
2016-Jan-29 08:31N 52°24' E 004°49'0 0.0
2016-Jan-29 07:31N 52°24' E 004°49'0 0.0
2016-Jan-29 06:31N 52°24' E 004°49'0 0.0
2016-Jan-29 05:31N 52°24' E 004°49'0 0.0
2016-Jan-29 04:31N 52°24' E 004°49'0 0.0
2016-Jan-29 03:31N 52°24' E 004°49'0 0.0
2016-Jan-29 02:31N 52°24' E 004°49'0 0.0
2016-Jan-29 01:31N 52°24' E 004°49'0 0.0
2016-Jan-29 00:31N 52°24' E 004°49'0 0.0
2016-Jan-28 23:31N 52°24' E 004°49'0 0.0
2016-Jan-28 22:31N 52°24' E 004°49'0 0.0
2016-Jan-28 21:31N 52°24' E 004°49'0 0.0
2016-Jan-28 20:31N 52°24' E 004°49'0 0.0
2016-Jan-28 19:31N 52°24' E 004°49'0 0.0
2016-Jan-28 18:31N 52°24' E 004°49'0 0.0
2016-Jan-28 17:31N 52°24' E 004°49'0 0.0
2016-Jan-28 16:31N 52°24' E 004°49'0 0.0
2016-Jan-28 15:31N 52°24' E 004°49'0 0.0
2016-Jan-28 14:31N 52°24' E 004°49'0 0.0
2016-Jan-28 13:31N 52°24' E 004°49'  

Dump ship's entire track history